sensor_id;sensor_type;location;lat;lon;timestamp;P1;durP1;ratioP1;P2;durP2;ratioP2
50789;SDS011;37287;47.554;7.844;2022-09-27T00:01:22;1.00;;;0.90;;
50789;SDS011;37287;47.554;7.844;2022-09-27T00:03:51;0.85;;;0.85;;
50789;SDS011;37287;47.554;7.844;2022-09-27T00:06:24;1.05;;;0.80;;
50789;SDS011;37287;47.554;7.844;2022-09-27T00:08:54;0.85;;;0.85;;
50789;SDS011;37287;47.554;7.844;2022-09-27T00:11:34;1.30;;;1.00;;
50789;SDS011;37287;47.554;7.844;2022-09-27T00:14:05;0.73;;;0.73;;
50789;SDS011;37287;47.554;7.844;2022-09-27T00:16:35;2.03;;;0.90;;
50789;SDS011;37287;47.554;7.844;2022-09-27T00:19:04;1.20;;;0.90;;
50789;SDS011;37287;47.554;7.844;2022-09-27T00:21:32;0.77;;;0.77;;
50789;SDS011;37287;47.554;7.844;2022-09-27T00:23:59;1.15;;;1.05;;
50789;SDS011;37287;47.554;7.844;2022-09-27T00:26:26;3.53;;;1.20;;
50789;SDS011;37287;47.554;7.844;2022-09-27T00:29:04;2.28;;;1.33;;
50789;SDS011;37287;47.554;7.844;2022-09-27T00:31:31;1.83;;;1.13;;
50789;SDS011;37287;47.554;7.844;2022-09-27T00:33:59;1.65;;;0.80;;
50789;SDS011;37287;47.554;7.844;2022-09-27T00:36:28;1.23;;;0.90;;
50789;SDS011;37287;47.554;7.844;2022-09-27T00:38:56;1.58;;;0.85;;
50789;SDS011;37287;47.554;7.844;2022-09-27T00:41:33;1.80;;;0.70;;
50789;SDS011;37287;47.554;7.844;2022-09-27T00:49:37;0.32;;;0.32;;
50789;SDS011;37287;47.554;7.844;2022-09-27T00:52:11;0.40;;;0.40;;
50789;SDS011;37287;47.554;7.844;2022-09-27T00:54:45;1.17;;;0.50;;
50789;SDS011;37287;47.554;7.844;2022-09-27T00:57:16;1.00;;;0.40;;
50789;SDS011;37287;47.554;7.844;2022-09-27T00:59:53;0.85;;;0.45;;
50789;SDS011;37287;47.554;7.844;2022-09-27T01:02:26;0.38;;;0.38;;
50789;SDS011;37287;47.554;7.844;2022-09-27T01:04:59;1.75;;;0.40;;
50789;SDS011;37287;47.554;7.844;2022-09-27T01:07:26;1.48;;;0.40;;
50789;SDS011;37287;47.554;7.844;2022-09-27T01:09:52;0.47;;;0.38;;
50789;SDS011;37287;47.554;7.844;2022-09-27T01:12:34;5.40;;;0.50;;
50789;SDS011;37287;47.554;7.844;2022-09-27T01:26:42;2.00;;;0.68;;
50789;SDS011;37287;47.554;7.844;2022-09-27T01:32:35;3.22;;;0.90;;
50789;SDS011;37287;47.554;7.844;2022-09-27T01:46:40;1.42;;;0.65;;
50789;SDS011;37287;47.554;7.844;2022-09-27T01:49:17;3.60;;;0.95;;
50789;SDS011;37287;47.554;7.844;2022-09-27T01:51:54;4.93;;;0.68;;
50789;SDS011;37287;47.554;7.844;2022-09-27T01:54:43;0.77;;;0.65;;
50789;SDS011;37287;47.554;7.844;2022-09-27T01:57:16;1.27;;;0.70;;
50789;SDS011;37287;47.554;7.844;2022-09-27T01:59:52;2.58;;;0.88;;
50789;SDS011;37287;47.554;7.844;2022-09-27T02:02:25;5.22;;;0.93;;
50789;SDS011;37287;47.554;7.844;2022-09-27T02:04:55;2.00;;;0.90;;
50789;SDS011;37287;47.554;7.844;2022-09-27T02:07:33;1.75;;;0.80;;
50789;SDS011;37287;47.554;7.844;2022-09-27T02:10:40;0.73;;;0.60;;
50789;SDS011;37287;47.554;7.844;2022-09-27T02:15:41;4.53;;;1.05;;
50789;SDS011;37287;47.554;7.844;2022-09-27T02:18:22;5.72;;;1.45;;
50789;SDS011;37287;47.554;7.844;2022-09-27T02:20:59;4.63;;;1.15;;
50789;SDS011;37287;47.554;7.844;2022-09-27T02:23:34;4.97;;;1.40;;
50789;SDS011;37287;47.554;7.844;2022-09-27T02:26:17;3.15;;;1.15;;
50789;SDS011;37287;47.554;7.844;2022-09-27T02:31:19;3.20;;;1.00;;
50789;SDS011;37287;47.554;7.844;2022-09-27T02:33:48;5.63;;;1.42;;
50789;SDS011;37287;47.554;7.844;2022-09-27T02:36:19;4.18;;;1.23;;
50789;SDS011;37287;47.554;7.844;2022-09-27T02:38:48;3.72;;;1.00;;
50789;SDS011;37287;47.554;7.844;2022-09-27T02:41:20;6.80;;;1.10;;
50789;SDS011;37287;47.554;7.844;2022-09-27T02:43:49;4.80;;;1.20;;
50789;SDS011;37287;47.554;7.844;2022-09-27T02:47:06;3.55;;;1.10;;
50789;SDS011;37287;47.554;7.844;2022-09-27T02:49:15;4.80;;;1.23;;
50789;SDS011;37287;47.554;7.844;2022-09-27T03:00:41;5.70;;;1.40;;
50789;SDS011;37287;47.554;7.844;2022-09-27T03:03:28;3.13;;;1.30;;
50789;SDS011;37287;47.554;7.844;2022-09-27T03:06:16;4.07;;;1.33;;
50789;SDS011;37287;47.554;7.844;2022-09-27T03:08:47;3.70;;;1.35;;
50789;SDS011;37287;47.554;7.844;2022-09-27T03:11:14;5.35;;;1.40;;
50789;SDS011;37287;47.554;7.844;2022-09-27T03:13:41;5.38;;;1.20;;
50789;SDS011;37287;47.554;7.844;2022-09-27T03:16:32;5.93;;;1.60;;
50789;SDS011;37287;47.554;7.844;2022-09-27T03:18:59;3.03;;;1.17;;
50789;SDS011;37287;47.554;7.844;2022-09-27T03:21:28;4.05;;;1.15;;
50789;SDS011;37287;47.554;7.844;2022-09-27T03:23:55;8.07;;;1.55;;
50789;SDS011;37287;47.554;7.844;2022-09-27T03:26:21;3.15;;;1.40;;
50789;SDS011;37287;47.554;7.844;2022-09-27T03:28:48;9.40;;;1.60;;
50789;SDS011;37287;47.554;7.844;2022-09-27T03:31:17;4.38;;;1.50;;
50789;SDS011;37287;47.554;7.844;2022-09-27T03:33:43;5.63;;;1.17;;
50789;SDS011;37287;47.554;7.844;2022-09-27T03:36:10;7.93;;;1.73;;
50789;SDS011;37287;47.554;7.844;2022-09-27T03:38:37;4.40;;;1.30;;
50789;SDS011;37287;47.554;7.844;2022-09-27T03:41:06;2.45;;;1.10;;
50789;SDS011;37287;47.554;7.844;2022-09-27T03:43:32;3.83;;;1.45;;
50789;SDS011;37287;47.554;7.844;2022-09-27T03:45:59;2.22;;;1.10;;
50789;SDS011;37287;47.554;7.844;2022-09-27T03:48:25;2.17;;;1.00;;
50789;SDS011;37287;47.554;7.844;2022-09-27T03:50:54;3.85;;;1.20;;
50789;SDS011;37287;47.554;7.844;2022-09-27T03:53:20;3.15;;;1.08;;
50789;SDS011;37287;47.554;7.844;2022-09-27T03:55:47;5.28;;;1.60;;
50789;SDS011;37287;47.554;7.844;2022-09-27T03:58:15;4.05;;;1.58;;
50789;SDS011;37287;47.554;7.844;2022-09-27T04:00:44;4.75;;;1.60;;
50789;SDS011;37287;47.554;7.844;2022-09-27T04:03:11;3.53;;;1.10;;
50789;SDS011;37287;47.554;7.844;2022-09-27T04:05:40;4.93;;;1.60;;
50789;SDS011;37287;47.554;7.844;2022-09-27T04:08:07;3.85;;;1.33;;
50789;SDS011;37287;47.554;7.844;2022-09-27T04:10:34;2.95;;;0.90;;
50789;SDS011;37287;47.554;7.844;2022-09-27T04:13:02;3.35;;;1.15;;
50789;SDS011;37287;47.554;7.844;2022-09-27T04:15:29;4.90;;;1.35;;
50789;SDS011;37287;47.554;7.844;2022-09-27T04:17:56;6.60;;;1.75;;
50789;SDS011;37287;47.554;7.844;2022-09-27T04:20:24;7.05;;;1.67;;
50789;SDS011;37287;47.554;7.844;2022-09-27T04:22:51;6.82;;;2.03;;
50789;SDS011;37287;47.554;7.844;2022-09-27T04:25:17;8.32;;;1.77;;
50789;SDS011;37287;47.554;7.844;2022-09-27T04:27:46;7.75;;;1.55;;
50789;SDS011;37287;47.554;7.844;2022-09-27T04:30:14;11.30;;;2.03;;
50789;SDS011;37287;47.554;7.844;2022-09-27T04:32:41;4.80;;;1.60;;
50789;SDS011;37287;47.554;7.844;2022-09-27T04:35:10;7.38;;;1.52;;
50789;SDS011;37287;47.554;7.844;2022-09-27T04:40:29;12.27;;;2.00;;
50789;SDS011;37287;47.554;7.844;2022-09-27T04:43:00;5.93;;;2.10;;
50789;SDS011;37287;47.554;7.844;2022-09-27T04:45:29;7.10;;;1.80;;
50789;SDS011;37287;47.554;7.844;2022-09-27T04:47:58;7.75;;;1.85;;
50789;SDS011;37287;47.554;7.844;2022-09-27T04:50:25;5.18;;;1.77;;
50789;SDS011;37287;47.554;7.844;2022-09-27T04:52:51;7.03;;;1.67;;
50789;SDS011;37287;47.554;7.844;2022-09-27T04:55:19;7.82;;;1.88;;
50789;SDS011;37287;47.554;7.844;2022-09-27T04:57:47;6.28;;;1.98;;
50789;SDS011;37287;47.554;7.844;2022-09-27T05:00:14;7.35;;;2.10;;
50789;SDS011;37287;47.554;7.844;2022-09-27T05:02:42;5.30;;;1.63;;
50789;SDS011;37287;47.554;7.844;2022-09-27T05:05:14;6.03;;;2.10;;
50789;SDS011;37287;47.554;7.844;2022-09-27T05:07:40;6.93;;;1.50;;
50789;SDS011;37287;47.554;7.844;2022-09-27T05:10:07;7.93;;;2.05;;
50789;SDS011;37287;47.554;7.844;2022-09-27T05:12:35;9.68;;;1.73;;
50789;SDS011;37287;47.554;7.844;2022-09-27T05:15:02;3.80;;;1.83;;
50789;SDS011;37287;47.554;7.844;2022-09-27T05:17:33;9.40;;;1.83;;
50789;SDS011;37287;47.554;7.844;2022-09-27T05:20:00;6.25;;;1.58;;
50789;SDS011;37287;47.554;7.844;2022-09-27T05:22:26;5.55;;;1.95;;
50789;SDS011;37287;47.554;7.844;2022-09-27T05:24:59;7.20;;;1.98;;
50789;SDS011;37287;47.554;7.844;2022-09-27T05:27:26;4.20;;;1.92;;
50789;SDS011;37287;47.554;7.844;2022-09-27T05:29:53;5.15;;;2.10;;
50789;SDS011;37287;47.554;7.844;2022-09-27T05:32:22;8.32;;;1.90;;
50789;SDS011;37287;47.554;7.844;2022-09-27T05:34:49;4.63;;;1.85;;
50789;SDS011;37287;47.554;7.844;2022-09-27T05:37:16;4.75;;;1.60;;
50789;SDS011;37287;47.554;7.844;2022-09-27T05:39:44;3.65;;;1.90;;
50789;SDS011;37287;47.554;7.844;2022-09-27T05:42:15;14.18;;;2.45;;
50789;SDS011;37287;47.554;7.844;2022-09-27T05:44:42;6.65;;;1.88;;
50789;SDS011;37287;47.554;7.844;2022-09-27T05:47:14;6.57;;;1.67;;
50789;SDS011;37287;47.554;7.844;2022-09-27T05:49:41;4.85;;;1.50;;
50789;SDS011;37287;47.554;7.844;2022-09-27T05:52:12;5.78;;;1.48;;
50789;SDS011;37287;47.554;7.844;2022-09-27T05:54:44;5.72;;;1.35;;
50789;SDS011;37287;47.554;7.844;2022-09-27T05:57:10;4.32;;;1.40;;
50789;SDS011;37287;47.554;7.844;2022-09-27T05:59:37;4.50;;;1.38;;
50789;SDS011;37287;47.554;7.844;2022-09-27T06:02:05;4.95;;;1.50;;
50789;SDS011;37287;47.554;7.844;2022-09-27T06:04:34;5.80;;;1.40;;
50789;SDS011;37287;47.554;7.844;2022-09-27T06:07:01;4.60;;;1.38;;
50789;SDS011;37287;47.554;7.844;2022-09-27T06:09:28;4.53;;;1.40;;
50789;SDS011;37287;47.554;7.844;2022-09-27T06:11:54;6.03;;;1.30;;
50789;SDS011;37287;47.554;7.844;2022-09-27T06:14:22;4.72;;;1.30;;
50789;SDS011;37287;47.554;7.844;2022-09-27T06:17:01;5.13;;;1.25;;
50789;SDS011;37287;47.554;7.844;2022-09-27T06:19:28;5.05;;;1.40;;
50789;SDS011;37287;47.554;7.844;2022-09-27T06:21:55;5.15;;;1.17;;
50789;SDS011;37287;47.554;7.844;2022-09-27T06:24:21;7.28;;;1.60;;
50789;SDS011;37287;47.554;7.844;2022-09-27T06:26:48;4.32;;;1.38;;
50789;SDS011;37287;47.554;7.844;2022-09-27T06:29:17;3.92;;;1.67;;
50789;SDS011;37287;47.554;7.844;2022-09-27T06:31:43;7.38;;;1.98;;
50789;SDS011;37287;47.554;7.844;2022-09-27T06:34:10;5.60;;;1.92;;
50789;SDS011;37287;47.554;7.844;2022-09-27T06:36:36;5.95;;;1.90;;
50789;SDS011;37287;47.554;7.844;2022-09-27T06:39:03;6.65;;;1.75;;
50789;SDS011;37287;47.554;7.844;2022-09-27T06:41:30;3.80;;;1.30;;
50789;SDS011;37287;47.554;7.844;2022-09-27T06:43:56;3.80;;;1.52;;
50789;SDS011;37287;47.554;7.844;2022-09-27T06:46:24;6.07;;;1.35;;
50789;SDS011;37287;47.554;7.844;2022-09-27T06:48:51;6.40;;;1.58;;
50789;SDS011;37287;47.554;7.844;2022-09-27T06:51:18;3.33;;;1.50;;
50789;SDS011;37287;47.554;7.844;2022-09-27T06:53:45;5.63;;;1.80;;
50789;SDS011;37287;47.554;7.844;2022-09-27T06:56:13;4.70;;;1.60;;
50789;SDS011;37287;47.554;7.844;2022-09-27T06:58:40;6.82;;;1.80;;
50789;SDS011;37287;47.554;7.844;2022-09-27T07:01:28;4.88;;;1.98;;
50789;SDS011;37287;47.554;7.844;2022-09-27T07:03:55;4.30;;;1.75;;
50789;SDS011;37287;47.554;7.844;2022-09-27T07:06:24;4.95;;;1.40;;
50789;SDS011;37287;47.554;7.844;2022-09-27T07:08:53;4.68;;;1.88;;
50789;SDS011;37287;47.554;7.844;2022-09-27T07:11:20;7.22;;;2.10;;
50789;SDS011;37287;47.554;7.844;2022-09-27T07:13:48;4.38;;;1.70;;
50789;SDS011;37287;47.554;7.844;2022-09-27T07:16:17;6.47;;;1.70;;
50789;SDS011;37287;47.554;7.844;2022-09-27T07:18:45;5.57;;;2.05;;
50789;SDS011;37287;47.554;7.844;2022-09-27T07:21:13;7.78;;;1.73;;
50789;SDS011;37287;47.554;7.844;2022-09-27T07:23:43;7.18;;;1.80;;
50789;SDS011;37287;47.554;7.844;2022-09-27T07:26:09;5.18;;;2.00;;
50789;SDS011;37287;47.554;7.844;2022-09-27T07:28:36;3.67;;;1.58;;
50789;SDS011;37287;47.554;7.844;2022-09-27T07:31:08;10.40;;;1.80;;
50789;SDS011;37287;47.554;7.844;2022-09-27T07:33:35;8.05;;;2.08;;
50789;SDS011;37287;47.554;7.844;2022-09-27T07:36:08;6.75;;;1.90;;
50789;SDS011;37287;47.554;7.844;2022-09-27T07:38:35;4.35;;;1.85;;
50789;SDS011;37287;47.554;7.844;2022-09-27T07:41:06;4.28;;;1.52;;
50789;SDS011;37287;47.554;7.844;2022-09-27T07:43:34;7.38;;;1.83;;
50789;SDS011;37287;47.554;7.844;2022-09-27T07:46:01;5.90;;;2.20;;
50789;SDS011;37287;47.554;7.844;2022-09-27T07:48:27;5.68;;;1.75;;
50789;SDS011;37287;47.554;7.844;2022-09-27T07:50:54;4.70;;;1.75;;
50789;SDS011;37287;47.554;7.844;2022-09-27T07:53:21;6.28;;;1.90;;
50789;SDS011;37287;47.554;7.844;2022-09-27T07:55:50;6.95;;;1.77;;
50789;SDS011;37287;47.554;7.844;2022-09-27T07:58:18;7.20;;;1.90;;
50789;SDS011;37287;47.554;7.844;2022-09-27T08:00:47;6.07;;;2.08;;
50789;SDS011;37287;47.554;7.844;2022-09-27T08:03:15;4.53;;;1.98;;
50789;SDS011;37287;47.554;7.844;2022-09-27T08:05:43;6.80;;;2.30;;
50789;SDS011;37287;47.554;7.844;2022-09-27T08:08:13;3.90;;;1.70;;
50789;SDS011;37287;47.554;7.844;2022-09-27T08:10:40;9.43;;;1.80;;
50789;SDS011;37287;47.554;7.844;2022-09-27T08:13:09;7.80;;;1.85;;
50789;SDS011;37287;47.554;7.844;2022-09-27T08:15:38;7.32;;;2.38;;
50789;SDS011;37287;47.554;7.844;2022-09-27T08:18:05;6.03;;;2.10;;
50789;SDS011;37287;47.554;7.844;2022-09-27T08:20:35;8.02;;;1.77;;
50789;SDS011;37287;47.554;7.844;2022-09-27T08:25:37;7.35;;;1.88;;
50789;SDS011;37287;47.554;7.844;2022-09-27T08:28:04;6.78;;;1.58;;
50789;SDS011;37287;47.554;7.844;2022-09-27T08:30:31;5.78;;;1.83;;
50789;SDS011;37287;47.554;7.844;2022-09-27T08:32:58;5.88;;;1.85;;
50789;SDS011;37287;47.554;7.844;2022-09-27T08:35:27;5.85;;;1.80;;
50789;SDS011;37287;47.554;7.844;2022-09-27T08:38:01;5.38;;;1.45;;
50789;SDS011;37287;47.554;7.844;2022-09-27T08:46:42;5.43;;;1.85;;
50789;SDS011;37287;47.554;7.844;2022-09-27T08:49:23;7.72;;;2.30;;
50789;SDS011;37287;47.554;7.844;2022-09-27T08:52:13;7.90;;;2.03;;
50789;SDS011;37287;47.554;7.844;2022-09-27T08:54:46;6.47;;;1.77;;
50789;SDS011;37287;47.554;7.844;2022-09-27T08:57:14;6.43;;;1.75;;
50789;SDS011;37287;47.554;7.844;2022-09-27T08:59:45;6.93;;;1.60;;
50789;SDS011;37287;47.554;7.844;2022-09-27T09:02:17;6.60;;;1.65;;
50789;SDS011;37287;47.554;7.844;2022-09-27T09:04:47;5.95;;;1.58;;
50789;SDS011;37287;47.554;7.844;2022-09-27T09:07:32;6.28;;;1.80;;
50789;SDS011;37287;47.554;7.844;2022-09-27T09:24:28;7.40;;;1.80;;
50789;SDS011;37287;47.554;7.844;2022-09-27T09:27:14;4.38;;;1.33;;
50789;SDS011;37287;47.554;7.844;2022-09-27T09:30:04;7.68;;;2.42;;
50789;SDS011;37287;47.554;7.844;2022-09-27T09:35:34;3.78;;;1.40;;
50789;SDS011;37287;47.554;7.844;2022-09-27T09:38:17;2.28;;;0.70;;
50789;SDS011;37287;47.554;7.844;2022-09-27T09:40:52;3.25;;;0.90;;
50789;SDS011;37287;47.554;7.844;2022-09-27T09:43:32;5.65;;;1.13;;
50789;SDS011;37287;47.554;7.844;2022-09-27T09:46:08;7.05;;;0.90;;
50789;SDS011;37287;47.554;7.844;2022-09-27T09:48:46;3.17;;;1.13;;
50789;SDS011;37287;47.554;7.844;2022-09-27T09:51:20;2.85;;;1.10;;
50789;SDS011;37287;47.554;7.844;2022-09-27T09:53:53;4.18;;;0.82;;
50789;SDS011;37287;47.554;7.844;2022-09-27T09:56:29;4.13;;;1.17;;
50789;SDS011;37287;47.554;7.844;2022-09-27T09:59:00;3.55;;;1.02;;
50789;SDS011;37287;47.554;7.844;2022-09-27T10:01:40;1.08;;;0.75;;
50789;SDS011;37287;47.554;7.844;2022-09-27T10:04:19;2.47;;;0.90;;
50789;SDS011;37287;47.554;7.844;2022-09-27T10:06:50;1.25;;;0.70;;
50789;SDS011;37287;47.554;7.844;2022-09-27T10:09:21;1.55;;;0.80;;
50789;SDS011;37287;47.554;7.844;2022-09-27T10:11:50;0.95;;;0.70;;
50789;SDS011;37287;47.554;7.844;2022-09-27T10:14:20;0.70;;;0.60;;
50789;SDS011;37287;47.554;7.844;2022-09-27T10:16:52;1.45;;;0.80;;
50789;SDS011;37287;47.554;7.844;2022-09-27T10:19:29;2.25;;;0.77;;
50789;SDS011;37287;47.554;7.844;2022-09-27T10:22:12;2.15;;;0.60;;
50789;SDS011;37287;47.554;7.844;2022-09-27T10:27:24;3.67;;;0.88;;
50789;SDS011;37287;47.554;7.844;2022-09-27T10:29:55;3.83;;;1.02;;
50789;SDS011;37287;47.554;7.844;2022-09-27T10:32:28;1.30;;;0.82;;
50789;SDS011;37287;47.554;7.844;2022-09-27T10:35:30;1.35;;;0.60;;
50789;SDS011;37287;47.554;7.844;2022-09-27T10:38:12;2.38;;;1.10;;
50789;SDS011;37287;47.554;7.844;2022-09-27T10:40:50;1.48;;;0.60;;
50789;SDS011;37287;47.554;7.844;2022-09-27T10:46:37;2.72;;;0.70;;
50789;SDS011;37287;47.554;7.844;2022-09-27T10:51:44;2.22;;;0.50;;
50789;SDS011;37287;47.554;7.844;2022-09-27T10:54:18;0.88;;;0.52;;
50789;SDS011;37287;47.554;7.844;2022-09-27T10:56:54;1.33;;;0.60;;
50789;SDS011;37287;47.554;7.844;2022-09-27T10:59:35;1.65;;;0.52;;
50789;SDS011;37287;47.554;7.844;2022-09-27T11:02:16;0.50;;;0.50;;
50789;SDS011;37287;47.554;7.844;2022-09-27T11:07:48;0.43;;;0.40;;
50789;SDS011;37287;47.554;7.844;2022-09-27T11:10:24;0.55;;;0.50;;
50789;SDS011;37287;47.554;7.844;2022-09-27T11:13:18;0.30;;;0.30;;
50789;SDS011;37287;47.554;7.844;2022-09-27T11:45:20;6.07;;;1.45;;
50789;SDS011;37287;47.554;7.844;2022-09-27T11:48:22;3.25;;;1.10;;
50789;SDS011;37287;47.554;7.844;2022-09-27T11:51:00;1.50;;;1.00;;
50789;SDS011;37287;47.554;7.844;2022-09-27T12:10:48;2.70;;;1.02;;
50789;SDS011;37287;47.554;7.844;2022-09-27T12:13:21;6.43;;;0.80;;
50789;SDS011;37287;47.554;7.844;2022-09-27T12:15:58;4.63;;;1.35;;
50789;SDS011;37287;47.554;7.844;2022-09-27T12:18:26;4.13;;;0.85;;
50789;SDS011;37287;47.554;7.844;2022-09-27T12:21:01;2.92;;;0.95;;
50789;SDS011;37287;47.554;7.844;2022-09-27T12:23:33;6.22;;;0.90;;
50789;SDS011;37287;47.554;7.844;2022-09-27T12:26:07;1.77;;;0.70;;
50789;SDS011;37287;47.554;7.844;2022-09-27T12:28:41;2.38;;;1.00;;
50789;SDS011;37287;47.554;7.844;2022-09-27T12:36:48;2.78;;;0.90;;
50789;SDS011;37287;47.554;7.844;2022-09-27T12:42:19;5.80;;;1.10;;
50789;SDS011;37287;47.554;7.844;2022-09-27T12:44:51;2.03;;;0.82;;
50789;SDS011;37287;47.554;7.844;2022-09-27T12:50:11;1.92;;;0.68;;
50789;SDS011;37287;47.554;7.844;2022-09-27T12:52:46;5.82;;;0.80;;
50789;SDS011;37287;47.554;7.844;2022-09-27T12:55:24;2.55;;;0.82;;
50789;SDS011;37287;47.554;7.844;2022-09-27T13:00:35;1.88;;;0.80;;
50789;SDS011;37287;47.554;7.844;2022-09-27T13:08:58;1.23;;;0.63;;
50789;SDS011;37287;47.554;7.844;2022-09-27T13:14:23;0.98;;;0.43;;
50789;SDS011;37287;47.554;7.844;2022-09-27T13:16:52;1.27;;;0.70;;
50789;SDS011;37287;47.554;7.844;2022-09-27T13:19:36;0.90;;;0.55;;
50789;SDS011;37287;47.554;7.844;2022-09-27T13:22:06;1.15;;;0.70;;
50789;SDS011;37287;47.554;7.844;2022-09-27T13:24:51;1.10;;;0.63;;
50789;SDS011;37287;47.554;7.844;2022-09-27T13:29:49;0.88;;;0.60;;
50789;SDS011;37287;47.554;7.844;2022-09-27T13:32:23;2.58;;;0.63;;
50789;SDS011;37287;47.554;7.844;2022-09-27T13:34:57;1.00;;;0.68;;
50789;SDS011;37287;47.554;7.844;2022-09-27T13:42:58;2.35;;;0.80;;
50789;SDS011;37287;47.554;7.844;2022-09-27T13:45:40;2.53;;;0.80;;
50789;SDS011;37287;47.554;7.844;2022-09-27T13:48:31;0.98;;;0.52;;
50789;SDS011;37287;47.554;7.844;2022-09-27T13:54:00;3.45;;;0.80;;
50789;SDS011;37287;47.554;7.844;2022-09-27T13:59:49;2.20;;;0.60;;
50789;SDS011;37287;47.554;7.844;2022-09-27T14:01:57;0.75;;;0.70;;
50789;SDS011;37287;47.554;7.844;2022-09-27T14:04:51;2.33;;;0.82;;
50789;SDS011;37287;47.554;7.844;2022-09-27T14:07:22;1.85;;;0.80;;
50789;SDS011;37287;47.554;7.844;2022-09-27T14:09:53;1.42;;;1.00;;
50789;SDS011;37287;47.554;7.844;2022-09-27T14:12:36;2.92;;;0.95;;
50789;SDS011;37287;47.554;7.844;2022-09-27T14:15:08;2.20;;;0.90;;
50789;SDS011;37287;47.554;7.844;2022-09-27T14:18:04;3.10;;;0.85;;
50789;SDS011;37287;47.554;7.844;2022-09-27T14:20:40;4.40;;;1.45;;
50789;SDS011;37287;47.554;7.844;2022-09-27T14:23:19;1.25;;;0.90;;
50789;SDS011;37287;47.554;7.844;2022-09-27T14:25:50;2.08;;;1.00;;
50789;SDS011;37287;47.554;7.844;2022-09-27T14:28:23;1.38;;;0.85;;
50789;SDS011;37287;47.554;7.844;2022-09-27T14:34:04;2.22;;;1.02;;
50789;SDS011;37287;47.554;7.844;2022-09-27T14:36:35;1.27;;;0.93;;
50789;SDS011;37287;47.554;7.844;2022-09-27T14:39:22;1.10;;;0.50;;
50789;SDS011;37287;47.554;7.844;2022-09-27T14:41:54;1.35;;;0.70;;
50789;SDS011;37287;47.554;7.844;2022-09-27T14:44:21;3.63;;;0.80;;
50789;SDS011;37287;47.554;7.844;2022-09-27T14:49:45;0.75;;;0.45;;
50789;SDS011;37287;47.554;7.844;2022-09-27T14:52:18;1.63;;;0.83;;
50789;SDS011;37287;47.554;7.844;2022-09-27T14:54:55;3.30;;;0.70;;
50789;SDS011;37287;47.554;7.844;2022-09-27T14:57:24;4.55;;;0.68;;
50789;SDS011;37287;47.554;7.844;2022-09-27T14:59:55;4.18;;;0.80;;
50789;SDS011;37287;47.554;7.844;2022-09-27T15:02:23;1.15;;;0.73;;
50789;SDS011;37287;47.554;7.844;2022-09-27T15:04:51;1.55;;;1.20;;
50789;SDS011;37287;47.554;7.844;2022-09-27T15:07:21;1.10;;;0.80;;
50789;SDS011;37287;47.554;7.844;2022-09-27T15:09:48;3.28;;;0.93;;
50789;SDS011;37287;47.554;7.844;2022-09-27T15:12:18;1.50;;;0.82;;
50789;SDS011;37287;47.554;7.844;2022-09-27T15:14:51;2.40;;;1.00;;
50789;SDS011;37287;47.554;7.844;2022-09-27T15:17:20;1.45;;;1.00;;
50789;SDS011;37287;47.554;7.844;2022-09-27T15:20:00;2.15;;;1.20;;
50789;SDS011;37287;47.554;7.844;2022-09-27T15:22:46;1.50;;;1.13;;
50789;SDS011;37287;47.554;7.844;2022-09-27T15:25:16;2.22;;;1.50;;
50789;SDS011;37287;47.554;7.844;2022-09-27T15:33:06;1.73;;;1.27;;
50789;SDS011;37287;47.554;7.844;2022-09-27T15:36:04;3.15;;;1.20;;
50789;SDS011;37287;47.554;7.844;2022-09-27T15:38:39;2.20;;;1.08;;
50789;SDS011;37287;47.554;7.844;2022-09-27T15:43:45;2.97;;;1.08;;
50789;SDS011;37287;47.554;7.844;2022-09-27T15:51:54;2.28;;;1.00;;
50789;SDS011;37287;47.554;7.844;2022-09-27T15:54:23;2.45;;;0.85;;
50789;SDS011;37287;47.554;7.844;2022-09-27T15:56:52;2.65;;;0.98;;
50789;SDS011;37287;47.554;7.844;2022-09-27T15:59:28;2.38;;;0.80;;
50789;SDS011;37287;47.554;7.844;2022-09-27T16:02:00;3.55;;;1.20;;
50789;SDS011;37287;47.554;7.844;2022-09-27T16:04:33;0.73;;;0.73;;
50789;SDS011;37287;47.554;7.844;2022-09-27T16:07:00;0.52;;;0.52;;
50789;SDS011;37287;47.554;7.844;2022-09-27T16:09:30;0.70;;;0.55;;
50789;SDS011;37287;47.554;7.844;2022-09-27T16:11:56;0.45;;;0.40;;
50789;SDS011;37287;47.554;7.844;2022-09-27T16:14:24;0.88;;;0.55;;
50789;SDS011;37287;47.554;7.844;2022-09-27T16:16:52;1.90;;;0.68;;
50789;SDS011;37287;47.554;7.844;2022-09-27T16:19:23;0.47;;;0.47;;
50789;SDS011;37287;47.554;7.844;2022-09-27T16:21:54;0.73;;;0.50;;
50789;SDS011;37287;47.554;7.844;2022-09-27T16:24:21;0.90;;;0.40;;
50789;SDS011;37287;47.554;7.844;2022-09-27T16:26:48;0.82;;;0.40;;
50789;SDS011;37287;47.554;7.844;2022-09-27T16:29:15;0.98;;;0.40;;
50789;SDS011;37287;47.554;7.844;2022-09-27T16:31:42;1.50;;;0.77;;
50789;SDS011;37287;47.554;7.844;2022-09-27T16:34:09;1.15;;;0.60;;
50789;SDS011;37287;47.554;7.844;2022-09-27T16:36:37;1.08;;;0.90;;
50789;SDS011;37287;47.554;7.844;2022-09-27T16:39:05;1.60;;;1.08;;
50789;SDS011;37287;47.554;7.844;2022-09-27T16:41:33;3.72;;;1.45;;
50789;SDS011;37287;47.554;7.844;2022-09-27T16:44:04;2.92;;;1.88;;
50789;SDS011;37287;47.554;7.844;2022-09-27T16:46:32;3.78;;;2.53;;
50789;SDS011;37287;47.554;7.844;2022-09-27T16:49:00;2.00;;;1.80;;
50789;SDS011;37287;47.554;7.844;2022-09-27T16:51:50;1.45;;;1.35;;
50789;SDS011;37287;47.554;7.844;2022-09-27T16:54:26;1.48;;;1.30;;
50789;SDS011;37287;47.554;7.844;2022-09-27T16:56:59;1.52;;;1.30;;
50789;SDS011;37287;47.554;7.844;2022-09-27T16:59:26;2.83;;;1.40;;
50789;SDS011;37287;47.554;7.844;2022-09-27T17:01:53;1.38;;;1.10;;
50789;SDS011;37287;47.554;7.844;2022-09-27T17:04:46;3.80;;;2.05;;
50789;SDS011;37287;47.554;7.844;2022-09-27T17:07:12;2.95;;;1.45;;
50789;SDS011;37287;47.554;7.844;2022-09-27T17:09:39;2.17;;;1.48;;
50789;SDS011;37287;47.554;7.844;2022-09-27T17:12:06;1.80;;;1.30;;
50789;SDS011;37287;47.554;7.844;2022-09-27T17:14:37;1.13;;;1.02;;
50789;SDS011;37287;47.554;7.844;2022-09-27T17:17:03;2.20;;;1.80;;
50789;SDS011;37287;47.554;7.844;2022-09-27T17:19:31;1.63;;;1.50;;
50789;SDS011;37287;47.554;7.844;2022-09-27T17:21:59;1.58;;;1.25;;
50789;SDS011;37287;47.554;7.844;2022-09-27T17:24:26;2.55;;;1.38;;
50789;SDS011;37287;47.554;7.844;2022-09-27T17:26:53;2.58;;;1.92;;
50789;SDS011;37287;47.554;7.844;2022-09-27T17:29:22;1.98;;;1.40;;
50789;SDS011;37287;47.554;7.844;2022-09-27T17:31:49;1.67;;;1.05;;
50789;SDS011;37287;47.554;7.844;2022-09-27T17:34:16;1.98;;;1.10;;
50789;SDS011;37287;47.554;7.844;2022-09-27T17:36:44;0.88;;;0.88;;
50789;SDS011;37287;47.554;7.844;2022-09-27T17:39:15;0.90;;;0.90;;
50789;SDS011;37287;47.554;7.844;2022-09-27T17:41:43;1.05;;;0.80;;
50789;SDS011;37287;47.554;7.844;2022-09-27T17:44:11;1.33;;;0.80;;
50789;SDS011;37287;47.554;7.844;2022-09-27T17:46:39;1.10;;;0.68;;
50789;SDS011;37287;47.554;7.844;2022-09-27T17:49:10;0.47;;;0.47;;
50789;SDS011;37287;47.554;7.844;2022-09-27T17:51:57;1.88;;;0.63;;
50789;SDS011;37287;47.554;7.844;2022-09-27T17:54:24;0.68;;;0.60;;
50789;SDS011;37287;47.554;7.844;2022-09-27T17:56:55;0.40;;;0.40;;
50789;SDS011;37287;47.554;7.844;2022-09-27T17:59:21;0.63;;;0.50;;
50789;SDS011;37287;47.554;7.844;2022-09-27T18:01:48;2.67;;;1.67;;
50789;SDS011;37287;47.554;7.844;2022-09-27T18:04:16;4.85;;;3.28;;
50789;SDS011;37287;47.554;7.844;2022-09-27T18:06:45;5.82;;;2.13;;
50789;SDS011;37287;47.554;7.844;2022-09-27T18:09:14;2.13;;;1.83;;
50789;SDS011;37287;47.554;7.844;2022-09-27T18:11:42;3.30;;;2.50;;
50789;SDS011;37287;47.554;7.844;2022-09-27T18:14:10;3.63;;;2.20;;
50789;SDS011;37287;47.554;7.844;2022-09-27T18:16:38;1.65;;;1.55;;
50789;SDS011;37287;47.554;7.844;2022-09-27T18:19:08;1.48;;;1.33;;
50789;SDS011;37287;47.554;7.844;2022-09-27T18:21:39;3.67;;;1.80;;
50789;SDS011;37287;47.554;7.844;2022-09-27T18:24:05;1.70;;;1.60;;